createdAt,value
2023-11-21T04:30:29.793Z,6.53
2023-11-21T04:32:56.434Z,6.35
2023-11-21T04:35:23.087Z,6.25
2023-11-21T04:37:49.734Z,6.16
2023-11-21T04:40:16.490Z,5.88
2023-11-21T04:42:43.142Z,5.59
2023-11-21T04:45:09.775Z,5.65
2023-11-21T04:47:36.414Z,5.61
2023-11-21T04:50:03.094Z,5.45
2023-11-21T04:52:29.765Z,5.44
2023-11-21T04:54:56.375Z,5.43
2023-11-21T04:57:22.956Z,5.16
2023-11-21T04:59:49.631Z,5.05
2023-11-21T05:02:30.564Z,5.00
2023-11-21T05:05:01.985Z,4.98
2023-11-21T05:07:30.405Z,5.19
2023-11-21T05:09:58.313Z,5.05
2023-11-21T05:12:24.915Z,5.07
2023-11-21T05:14:51.540Z,4.94
2023-11-21T05:17:18.287Z,4.88
2023-11-21T05:19:47.319Z,4.97
2023-11-21T05:22:15.583Z,4.99
2023-11-21T05:24:42.170Z,4.88
2023-11-21T05:27:08.768Z,5.01
2023-11-21T05:29:35.334Z,4.89
2023-11-21T05:32:01.985Z,5.01
2023-11-21T05:34:28.629Z,5.01
2023-11-21T05:36:55.217Z,4.81
2023-11-21T05:39:21.784Z,4.87
2023-11-21T05:41:50.378Z,4.86
2023-11-21T05:44:17.114Z,4.99
2023-11-21T05:46:43.769Z,5.07
2023-11-21T05:49:10.403Z,5.01
2023-11-21T05:51:36.966Z,4.97
2023-11-21T05:54:03.532Z,5.00
2023-11-21T05:56:30.123Z,5.06
2023-11-21T05:58:56.793Z,4.98
2023-11-21T06:01:23.414Z,5.32
2023-11-21T06:03:50.157Z,5.35
2023-11-21T06:06:16.786Z,5.33
2023-11-21T06:08:43.421Z,5.45
2023-11-21T06:11:10.018Z,5.05
2023-11-21T06:13:36.618Z,4.98
2023-11-21T06:16:03.217Z,5.01
2023-11-21T06:18:29.844Z,5.05
2023-11-21T06:20:56.473Z,4.97
2023-11-21T06:23:23.063Z,4.89
2023-11-21T06:25:49.658Z,4.88
2023-11-21T06:28:16.317Z,4.85
2023-11-21T06:30:42.934Z,4.73
2023-11-21T06:33:09.582Z,4.81
2023-11-21T06:35:36.183Z,5.16
2023-11-21T06:38:02.814Z,5.35
2023-11-21T06:40:29.484Z,5.49
2023-11-21T06:42:56.098Z,5.61
2023-11-21T06:45:22.806Z,5.82
2023-11-21T06:47:49.602Z,6.04
2023-11-21T06:50:16.507Z,6.33
2023-11-21T06:52:43.193Z,6.52
2023-11-21T06:55:10.288Z,6.75
2023-11-21T06:57:37.012Z,6.99
2023-11-21T07:00:03.610Z,6.82
2023-11-21T07:02:30.288Z,6.92
2023-11-21T07:04:56.971Z,6.55
2023-11-21T07:07:23.615Z,6.61
2023-11-21T07:09:50.268Z,6.64
2023-11-21T07:12:16.903Z,6.70
2023-11-21T07:14:43.476Z,6.55
2023-11-21T07:17:10.092Z,6.07
2023-11-21T07:19:36.708Z,5.98
2023-11-21T07:22:03.318Z,5.96
2023-11-21T07:24:29.897Z,6.04
2023-11-21T07:26:56.476Z,5.97
2023-11-21T07:29:23.057Z,5.75
2023-11-21T07:31:49.798Z,5.66
2023-11-21T07:34:16.439Z,5.86
2023-11-21T07:36:43.015Z,6.21
2023-11-21T07:39:09.602Z,6.58
2023-11-21T07:41:36.243Z,7.12
2023-11-21T07:44:02.907Z,7.44
2023-11-21T07:46:29.579Z,7.68
2023-11-21T07:48:56.351Z,7.87
2023-11-21T07:51:23.071Z,8.02
2023-11-21T07:53:49.689Z,7.86
2023-11-21T07:56:16.285Z,7.83
2023-11-21T07:58:42.924Z,7.50
2023-11-21T08:01:09.554Z,6.74
2023-11-21T08:03:36.325Z,6.73
2023-11-21T08:06:05.609Z,6.43
2023-11-21T08:08:32.192Z,6.49
2023-11-21T08:10:58.897Z,6.76
2023-11-21T08:13:25.566Z,6.85
2023-11-21T08:15:52.189Z,6.65
2023-11-21T08:18:18.836Z,6.34
2023-11-21T08:20:45.443Z,6.96
2023-11-21T08:23:12.082Z,7.76
2023-11-21T08:25:38.723Z,8.26
2023-11-21T08:28:05.336Z,8.76
2023-11-21T08:30:31.898Z,9.33
2023-11-21T08:32:58.541Z,9.57
2023-11-21T08:35:25.305Z,9.68
2023-11-21T08:37:52.010Z,10.00
2023-11-21T08:40:18.864Z,9.80
2023-11-21T08:42:45.492Z,9.58
2023-11-21T08:45:12.076Z,9.65
2023-11-21T08:47:38.676Z,9.80
2023-11-21T08:50:06.380Z,10.06
2023-11-21T08:52:33.024Z,10.28
2023-11-21T08:54:59.629Z,10.27
2023-11-21T08:57:26.203Z,9.81
2023-11-21T08:59:52.788Z,9.53
2023-11-21T09:02:19.434Z,9.40
2023-11-21T09:04:48.480Z,9.38
2023-11-21T09:07:15.189Z,9.51
2023-11-21T09:09:41.777Z,9.36
2023-11-21T09:12:08.368Z,9.57
2023-11-21T09:14:35.054Z,9.67
2023-11-21T09:17:01.730Z,9.71
2023-11-21T09:19:28.365Z,9.77
2023-11-21T09:21:54.949Z,9.70
2023-11-21T09:24:21.521Z,9.35
2023-11-21T09:26:48.104Z,9.36
2023-11-21T09:29:14.711Z,9.39
2023-11-21T09:31:41.337Z,9.23
2023-11-21T09:34:08.009Z,9.23
2023-11-21T09:36:34.657Z,9.27
2023-11-21T09:39:01.236Z,9.37
2023-11-21T09:41:27.834Z,9.54
2023-11-21T09:43:54.454Z,9.32
2023-11-21T09:46:21.196Z,9.36
2023-11-21T09:48:47.868Z,9.11
2023-11-21T09:51:14.505Z,9.07
2023-11-21T09:53:41.078Z,9.29
2023-11-21T09:56:07.718Z,9.63
2023-11-21T09:58:34.340Z,9.58
2023-11-21T10:01:00.962Z,9.20
2023-11-21T10:03:27.641Z,9.61
2023-11-21T10:05:54.230Z,9.94
2023-11-21T10:08:20.831Z,10.52
2023-11-21T10:10:47.424Z,10.74
2023-11-21T10:13:14.033Z,11.03
2023-11-21T10:15:40.607Z,11.05
2023-11-21T10:18:07.227Z,10.53
2023-11-21T10:20:33.848Z,10.50
2023-11-21T10:23:00.426Z,10.43
2023-11-21T10:25:27.068Z,10.55
2023-11-21T10:27:53.677Z,10.69
2023-11-21T10:30:20.628Z,10.87
2023-11-21T10:32:47.415Z,10.52
2023-11-21T10:35:14.086Z,10.74
2023-11-21T10:37:40.753Z,10.50
2023-11-21T10:40:07.430Z,10.57
2023-11-21T10:42:34.139Z,10.23
2023-11-21T10:45:00.769Z,10.13
2023-11-21T10:47:27.487Z,10.20
2023-11-21T10:49:54.146Z,9.99
2023-11-21T10:52:20.727Z,9.86
2023-11-21T10:54:47.350Z,9.97
2023-11-21T10:57:13.929Z,9.99
2023-11-21T10:59:40.530Z,9.79
2023-11-21T11:02:07.292Z,9.91
2023-11-21T11:04:33.962Z,10.02
2023-11-21T11:07:02.073Z,9.88
2023-11-21T11:09:29.211Z,9.94
2023-11-21T11:11:55.797Z,10.03
2023-11-21T11:14:22.395Z,10.29
2023-11-21T11:16:49.108Z,10.58
2023-11-21T11:19:15.774Z,10.65
2023-11-21T11:21:42.354Z,10.53
2023-11-21T11:24:08.949Z,10.35
2023-11-21T11:26:35.525Z,10.45
2023-11-21T11:29:02.169Z,10.31
2023-11-21T11:31:28.860Z,10.15
2023-11-21T11:33:55.505Z,10.16
2023-11-21T11:36:22.110Z,10.15
2023-11-21T11:38:48.812Z,9.97
2023-11-21T11:41:15.524Z,10.11
2023-11-21T11:43:42.181Z,10.30
2023-11-21T11:46:08.820Z,10.10
2023-11-21T11:48:35.437Z,9.72
2023-11-21T11:51:02.025Z,9.42
2023-11-21T11:53:28.609Z,9.25
2023-11-21T11:55:55.229Z,9.29
2023-11-21T11:58:21.851Z,9.22
2023-11-21T12:00:48.464Z,9.36
2023-11-21T12:03:15.221Z,9.12
2023-11-21T12:05:41.883Z,9.20
2023-11-21T12:08:08.696Z,8.35
2023-11-21T12:10:35.452Z,9.34
2023-11-21T12:13:02.062Z,9.78
2023-11-21T12:15:28.657Z,9.68
2023-11-21T12:17:55.255Z,9.84
2023-11-21T12:20:21.872Z,9.73
2023-11-21T12:22:48.528Z,10.05
2023-11-21T12:25:15.142Z,10.07
2023-11-21T12:27:41.724Z,10.05
2023-11-21T12:30:08.321Z,10.11
2023-11-21T12:32:35.041Z,10.10
2023-11-21T12:35:01.687Z,10.46
2023-11-21T12:37:28.289Z,9.95
2023-11-21T12:39:54.861Z,9.49
2023-11-21T12:42:21.445Z,9.73
2023-11-21T12:44:48.060Z,9.34
2023-11-21T12:47:14.788Z,9.32
2023-11-21T12:49:41.482Z,9.65
2023-11-21T12:52:08.199Z,9.59
2023-11-21T12:54:34.961Z,9.74
2023-11-21T12:57:01.685Z,9.83
2023-11-21T12:59:28.402Z,10.36
2023-11-21T13:01:55.316Z,10.34
2023-11-21T13:04:21.941Z,9.71
2023-11-21T13:06:48.784Z,9.83
2023-11-21T13:09:15.600Z,10.10
2023-11-21T13:11:42.245Z,9.89
2023-11-21T13:14:08.926Z,8.95
2023-11-21T13:16:35.692Z,7.99
2023-11-21T13:19:02.327Z,8.40
2023-11-21T13:21:28.937Z,8.42
2023-11-21T13:23:55.537Z,8.74
2023-11-21T13:26:22.124Z,8.40
2023-11-21T13:28:48.827Z,8.30
2023-11-21T13:31:15.559Z,8.39
2023-11-21T13:33:42.479Z,8.49
2023-11-21T13:36:09.226Z,8.63
2023-11-21T13:38:35.818Z,8.19
2023-11-21T13:41:02.592Z,7.71
2023-11-21T13:43:29.196Z,7.13
2023-11-21T13:45:55.804Z,7.35
2023-11-21T13:48:22.370Z,6.77
2023-11-21T13:50:48.956Z,7.30
2023-11-21T13:53:15.563Z,7.22
2023-11-21T13:55:42.154Z,7.43
2023-11-21T13:58:08.751Z,7.48
2023-11-21T14:00:35.307Z,7.55
2023-11-21T14:03:02.054Z,7.83
2023-11-21T14:05:28.727Z,7.58
2023-11-21T14:07:55.348Z,7.27
2023-11-21T14:10:21.900Z,7.00
2023-11-21T14:12:48.490Z,7.38
2023-11-21T14:15:15.059Z,6.81
2023-11-21T14:17:41.665Z,7.28
2023-11-21T14:20:08.397Z,7.09
2023-11-21T14:22:35.044Z,7.24
2023-11-21T14:25:01.648Z,7.31
2023-11-21T14:27:28.221Z,7.48
2023-11-21T14:29:54.814Z,7.70
2023-11-21T14:32:21.482Z,7.06
2023-11-21T14:34:48.232Z,7.56
2023-11-21T14:37:15.078Z,7.10
2023-11-21T14:39:41.714Z,7.27
2023-11-21T14:42:08.310Z,7.47
2023-11-21T14:44:34.891Z,7.59
2023-11-21T14:47:01.542Z,7.48
2023-11-21T14:49:28.224Z,7.18
2023-11-21T14:51:54.793Z,7.03
2023-11-21T14:54:21.365Z,6.83
2023-11-21T14:56:47.958Z,7.15
2023-11-21T14:59:14.604Z,7.15
2023-11-21T15:01:41.247Z,6.80
2023-11-21T15:04:07.979Z,6.37
2023-11-21T15:06:34.667Z,6.33
2023-11-21T15:09:01.258Z,6.05
2023-11-21T15:11:27.821Z,6.03
2023-11-21T15:13:54.419Z,5.73
2023-11-21T15:16:21.047Z,5.68
2023-11-21T15:18:47.645Z,5.59
2023-11-21T15:21:14.227Z,5.48
2023-11-21T15:23:40.812Z,5.46
2023-11-21T15:26:07.435Z,5.54
2023-11-21T15:28:34.029Z,5.56
2023-11-21T15:31:00.655Z,5.33
2023-11-21T15:33:27.298Z,5.74
2023-11-21T15:35:53.892Z,5.32
2023-11-21T15:38:20.529Z,5.22
2023-11-21T15:40:47.227Z,5.44
2023-11-21T15:43:13.967Z,5.78
2023-11-21T15:45:40.555Z,5.96
2023-11-21T15:48:07.160Z,6.34
2023-11-21T15:50:33.746Z,6.12
2023-11-21T15:53:00.421Z,5.06
2023-11-21T15:55:27.131Z,4.83
2023-11-21T15:57:53.712Z,4.47
2023-11-21T16:00:20.287Z,4.49
2023-11-21T16:02:47.017Z,4.72
2023-11-21T16:05:13.688Z,4.42
2023-11-21T16:07:40.335Z,4.66
2023-11-21T16:10:06.908Z,4.61
2023-11-21T16:12:33.467Z,4.74
2023-11-21T16:15:00.077Z,4.55
2023-11-21T16:17:26.666Z,4.09
2023-11-21T16:19:53.315Z,4.78
2023-11-21T16:22:19.993Z,4.61
2023-11-21T16:24:46.558Z,4.70
2023-11-21T16:27:13.129Z,4.27
2023-11-21T16:29:40.028Z,4.25
2023-11-21T16:32:06.650Z,4.35
2023-11-21T16:34:33.247Z,4.39
2023-11-21T16:36:59.816Z,4.39
2023-11-21T16:39:26.451Z,4.37
2023-11-21T16:41:53.014Z,4.24
2023-11-21T16:44:19.707Z,4.25
2023-11-21T16:46:46.488Z,4.53
2023-11-21T16:49:13.120Z,4.54
2023-11-21T16:51:39.707Z,4.49
2023-11-21T16:54:06.292Z,4.61
2023-11-21T16:56:32.872Z,4.68
2023-11-21T16:58:59.484Z,4.55
2023-11-21T17:01:26.181Z,4.62
2023-11-21T17:03:52.890Z,4.69
2023-11-21T17:06:19.534Z,4.72
2023-11-21T17:08:46.124Z,4.75
2023-11-21T17:11:12.753Z,4.89
2023-11-21T17:13:39.449Z,4.95
2023-11-21T17:16:06.091Z,4.72
2023-11-21T17:18:32.729Z,4.70
2023-11-21T17:20:59.326Z,4.64
2023-11-21T17:23:25.902Z,4.69
2023-11-21T17:25:52.546Z,4.70
2023-11-21T17:28:19.140Z,4.92
2023-11-21T17:30:45.747Z,4.90
2023-11-21T17:33:12.336Z,5.05
2023-11-21T17:35:38.954Z,5.03
2023-11-21T17:38:05.584Z,4.98
2023-11-21T17:40:32.186Z,4.92
2023-11-21T17:42:58.781Z,4.81
2023-11-21T17:45:25.394Z,4.94
2023-11-21T17:47:52.042Z,4.90
2023-11-21T17:50:18.690Z,4.91
2023-11-21T17:52:45.341Z,4.85
2023-11-21T17:55:11.984Z,4.89
2023-11-21T17:57:38.579Z,4.79
2023-11-21T18:00:05.161Z,4.77
2023-11-21T18:02:31.825Z,5.19
2023-11-21T18:04:58.492Z,5.28
2023-11-21T18:07:25.083Z,5.59
2023-11-21T18:09:51.675Z,5.66
2023-11-21T18:12:18.244Z,5.87
2023-11-21T18:14:44.854Z,6.24
2023-11-21T18:17:11.414Z,5.57
2023-11-21T18:19:38.061Z,5.89
2023-11-21T18:22:04.674Z,5.55
2023-11-21T18:24:31.254Z,5.91
2023-11-21T18:26:57.909Z,6.00
2023-11-21T18:29:24.566Z,6.07
2023-11-21T18:31:51.242Z,5.29
2023-11-21T18:34:17.861Z,4.96
2023-11-21T18:36:44.458Z,4.35
2023-11-21T18:39:11.122Z,4.99
2023-11-21T18:41:37.738Z,5.07
2023-11-21T18:44:04.396Z,5.22
2023-11-21T18:46:31.556Z,5.37
2023-11-21T18:48:58.158Z,5.90
2023-11-21T18:51:24.761Z,5.82
2023-11-21T18:53:51.350Z,6.04
2023-11-21T18:56:17.983Z,6.38
2023-11-21T18:58:44.607Z,6.14
2023-11-21T19:01:11.264Z,5.96
2023-11-21T19:03:37.995Z,5.78
2023-11-21T19:06:04.618Z,5.81
2023-11-21T19:08:31.190Z,6.22
2023-11-21T19:10:57.820Z,6.41
2023-11-21T19:13:24.430Z,6.67
2023-11-21T19:15:51.022Z,6.81
2023-11-21T19:18:17.639Z,6.59
2023-11-21T19:20:44.269Z,6.67
2023-11-21T19:23:10.903Z,7.01
2023-11-21T19:25:37.520Z,6.92
2023-11-21T19:28:04.102Z,6.92
2023-11-21T19:30:30.683Z,6.85
2023-11-21T19:32:57.337Z,6.94
2023-11-21T19:35:23.951Z,7.10
2023-11-21T19:37:50.582Z,6.95
2023-11-21T19:40:17.170Z,6.95
2023-11-21T19:42:43.776Z,7.09
2023-11-21T19:45:10.417Z,6.71
2023-11-21T19:47:37.042Z,6.71
2023-11-21T19:50:03.679Z,6.57
2023-11-21T19:52:30.283Z,6.55
2023-11-21T19:54:56.862Z,6.59
2023-11-21T19:57:23.464Z,6.59
2023-11-21T19:59:50.041Z,6.78
2023-11-21T20:02:16.762Z,6.93
2023-11-21T20:04:43.448Z,6.52
2023-11-21T20:07:10.030Z,6.15
2023-11-21T20:09:36.612Z,5.70
2023-11-21T20:12:03.205Z,5.62
2023-11-21T20:14:30.085Z,5.52
2023-11-21T20:16:56.847Z,5.42
2023-11-21T20:19:23.524Z,5.51
2023-11-21T20:21:50.136Z,5.36
2023-11-21T20:24:16.784Z,5.31
2023-11-21T20:26:43.632Z,5.16
2023-11-21T20:29:10.419Z,5.12
2023-11-21T20:31:37.108Z,5.25
2023-11-21T20:34:03.712Z,5.02
2023-11-21T20:36:30.343Z,4.74
2023-11-21T20:38:56.934Z,5.35
2023-11-21T20:41:23.571Z,5.39
2023-11-21T20:43:50.268Z,5.31
2023-11-21T20:48:43.522Z,5.79
2023-11-21T20:51:10.156Z,6.19
2023-11-21T20:53:36.762Z,6.32
2023-11-21T20:56:03.329Z,5.39
2023-11-21T20:58:29.900Z,4.92
2023-11-21T21:00:56.464Z,4.85
2023-11-21T21:03:23.165Z,5.00
2023-11-21T21:05:49.632Z,5.01
2023-11-21T21:08:16.157Z,5.21
2023-11-21T21:10:42.598Z,5.25
2023-11-21T21:13:09.036Z,5.16
2023-11-21T21:15:35.480Z,5.39
2023-11-21T21:18:02.025Z,5.64
2023-11-21T21:20:28.496Z,5.65
2023-11-21T21:22:55.027Z,5.94
2023-11-21T21:25:21.499Z,6.19
2023-11-21T21:27:47.945Z,6.37
